sensor_id;sensor_type;location;lat;lon;timestamp;temperature;humidity
43581;DHT22;29175;51.030;4.606;2022-10-16T00:01:16;15.00;99.90
43581;DHT22;29175;51.030;4.606;2022-10-16T00:03:43;15.00;99.90
43581;DHT22;29175;51.030;4.606;2022-10-16T00:06:10;14.90;99.90
43581;DHT22;29175;51.030;4.606;2022-10-16T00:08:36;15.00;99.90
43581;DHT22;29175;51.030;4.606;2022-10-16T00:11:08;15.00;99.90
43581;DHT22;29175;51.030;4.606;2022-10-16T00:13:36;15.00;99.90
43581;DHT22;29175;51.030;4.606;2022-10-16T00:16:03;15.00;99.90
43581;DHT22;29175;51.030;4.606;2022-10-16T00:18:29;15.00;99.90
43581;DHT22;29175;51.030;4.606;2022-10-16T00:21:00;15.00;99.90
43581;DHT22;29175;51.030;4.606;2022-10-16T00:23:28;15.00;99.90
43581;DHT22;29175;51.030;4.606;2022-10-16T00:25:56;14.90;99.90
43581;DHT22;29175;51.030;4.606;2022-10-16T00:28:22;14.90;99.90
43581;DHT22;29175;51.030;4.606;2022-10-16T00:30:48;14.90;99.90
43581;DHT22;29175;51.030;4.606;2022-10-16T00:33:13;14.90;99.90
43581;DHT22;29175;51.030;4.606;2022-10-16T00:35:39;14.90;99.90
43581;DHT22;29175;51.030;4.606;2022-10-16T00:38:04;14.80;99.90
43581;DHT22;29175;51.030;4.606;2022-10-16T00:40:30;14.80;99.90
43581;DHT22;29175;51.030;4.606;2022-10-16T00:42:56;14.80;99.90
43581;DHT22;29175;51.030;4.606;2022-10-16T00:45:22;14.80;99.90
43581;DHT22;29175;51.030;4.606;2022-10-16T00:47:49;14.80;99.90
43581;DHT22;29175;51.030;4.606;2022-10-16T00:50:29;14.80;99.90
43581;DHT22;29175;51.030;4.606;2022-10-16T00:52:56;14.80;99.90
43581;DHT22;29175;51.030;4.606;2022-10-16T00:55:22;14.80;99.90
43581;DHT22;29175;51.030;4.606;2022-10-16T00:57:49;14.70;99.90
43581;DHT22;29175;51.030;4.606;2022-10-16T01:00:21;14.60;99.90
43581;DHT22;29175;51.030;4.606;2022-10-16T01:03:02;14.60;99.90
43581;DHT22;29175;51.030;4.606;2022-10-16T01:05:49;14.60;99.90
43581;DHT22;29175;51.030;4.606;2022-10-16T01:08:33;14.50;99.90
43581;DHT22;29175;51.030;4.606;2022-10-16T01:11:26;14.50;99.90
43581;DHT22;29175;51.030;4.606;2022-10-16T01:13:55;14.60;99.90
43581;DHT22;29175;51.030;4.606;2022-10-16T01:19:44;14.70;99.90
43581;DHT22;29175;51.030;4.606;2022-10-16T01:22:06;14.60;99.90
43581;DHT22;29175;51.030;4.606;2022-10-16T01:24:44;14.60;99.90
43581;DHT22;29175;51.030;4.606;2022-10-16T01:29:56;14.60;99.90
43581;DHT22;29175;51.030;4.606;2022-10-16T01:32:28;14.60;99.90
43581;DHT22;29175;51.030;4.606;2022-10-16T01:35:02;14.50;99.90
43581;DHT22;29175;51.030;4.606;2022-10-16T01:37:42;14.50;99.90
43581;DHT22;29175;51.030;4.606;2022-10-16T01:40:12;14.40;99.90
43581;DHT22;29175;51.030;4.606;2022-10-16T01:42:42;14.40;99.90
43581;DHT22;29175;51.030;4.606;2022-10-16T01:45:12;14.40;99.90
43581;DHT22;29175;51.030;4.606;2022-10-16T01:47:39;14.20;99.90
43581;DHT22;29175;51.030;4.606;2022-10-16T01:50:07;14.20;99.90
43581;DHT22;29175;51.030;4.606;2022-10-16T01:52:41;14.30;99.90
43581;DHT22;29175;51.030;4.606;2022-10-16T01:55:10;14.40;99.90
43581;DHT22;29175;51.030;4.606;2022-10-16T01:57:41;14.30;99.90
43581;DHT22;29175;51.030;4.606;2022-10-16T02:00:11;14.40;99.90
43581;DHT22;29175;51.030;4.606;2022-10-16T02:02:40;14.40;99.90
43581;DHT22;29175;51.030;4.606;2022-10-16T02:07:45;14.40;99.90
43581;DHT22;29175;51.030;4.606;2022-10-16T02:10:10;14.30;99.90
43581;DHT22;29175;51.030;4.606;2022-10-16T02:12:39;14.30;99.90
43581;DHT22;29175;51.030;4.606;2022-10-16T02:15:06;14.50;99.90
43581;DHT22;29175;51.030;4.606;2022-10-16T02:17:32;14.40;99.90
43581;DHT22;29175;51.030;4.606;2022-10-16T02:19:58;14.40;99.90
43581;DHT22;29175;51.030;4.606;2022-10-16T02:24:58;14.40;99.90
43581;DHT22;29175;51.030;4.606;2022-10-16T02:28:16;14.30;99.90
43581;DHT22;29175;51.030;4.606;2022-10-16T02:30:29;14.40;99.90
43581;DHT22;29175;51.030;4.606;2022-10-16T02:32:57;14.40;99.90
43581;DHT22;29175;51.030;4.606;2022-10-16T02:35:24;14.30;99.90
43581;DHT22;29175;51.030;4.606;2022-10-16T02:37:51;14.30;99.90
43581;DHT22;29175;51.030;4.606;2022-10-16T02:40:18;14.40;99.90
43581;DHT22;29175;51.030;4.606;2022-10-16T02:42:44;14.30;99.90
43581;DHT22;29175;51.030;4.606;2022-10-16T02:45:11;14.30;99.90
43581;DHT22;29175;51.030;4.606;2022-10-16T02:47:37;14.40;99.90
43581;DHT22;29175;51.030;4.606;2022-10-16T02:50:04;14.40;99.90
43581;DHT22;29175;51.030;4.606;2022-10-16T02:52:30;14.40;99.90
43581;DHT22;29175;51.030;4.606;2022-10-16T02:54:56;14.40;99.90
43581;DHT22;29175;51.030;4.606;2022-10-16T02:57:21;14.50;99.90
43581;DHT22;29175;51.030;4.606;2022-10-16T02:59:47;14.50;99.90
43581;DHT22;29175;51.030;4.606;2022-10-16T03:02:13;14.60;99.90
43581;DHT22;29175;51.030;4.606;2022-10-16T03:04:39;14.70;99.90
43581;DHT22;29175;51.030;4.606;2022-10-16T03:07:05;14.90;99.90
43581;DHT22;29175;51.030;4.606;2022-10-16T03:09:31;14.80;99.90
43581;DHT22;29175;51.030;4.606;2022-10-16T03:11:57;14.70;99.90
43581;DHT22;29175;51.030;4.606;2022-10-16T03:14:22;14.70;99.90
43581;DHT22;29175;51.030;4.606;2022-10-16T03:16:48;14.70;99.90
43581;DHT22;29175;51.030;4.606;2022-10-16T03:19:16;14.70;99.90
43581;DHT22;29175;51.030;4.606;2022-10-16T03:21:42;14.80;99.90
43581;DHT22;29175;51.030;4.606;2022-10-16T03:24:08;14.90;99.90
43581;DHT22;29175;51.030;4.606;2022-10-16T03:26:34;14.80;99.90
43581;DHT22;29175;51.030;4.606;2022-10-16T03:29:00;14.70;99.90
43581;DHT22;29175;51.030;4.606;2022-10-16T03:31:26;14.80;99.90
43581;DHT22;29175;51.030;4.606;2022-10-16T03:33:51;14.90;99.90
43581;DHT22;29175;51.030;4.606;2022-10-16T03:36:17;14.80;99.90
43581;DHT22;29175;51.030;4.606;2022-10-16T03:38:43;14.90;99.90
43581;DHT22;29175;51.030;4.606;2022-10-16T03:41:08;14.90;99.90
43581;DHT22;29175;51.030;4.606;2022-10-16T03:43:34;14.90;99.90
43581;DHT22;29175;51.030;4.606;2022-10-16T03:46:00;15.10;99.90
43581;DHT22;29175;51.030;4.606;2022-10-16T03:48:25;15.00;99.90
43581;DHT22;29175;51.030;4.606;2022-10-16T03:50:51;15.00;99.90
43581;DHT22;29175;51.030;4.606;2022-10-16T03:53:17;14.90;99.90
43581;DHT22;29175;51.030;4.606;2022-10-16T03:55:44;14.90;99.90
43581;DHT22;29175;51.030;4.606;2022-10-16T03:58:10;14.90;99.90
43581;DHT22;29175;51.030;4.606;2022-10-16T04:00:40;14.90;99.90
43581;DHT22;29175;51.030;4.606;2022-10-16T04:03:06;15.00;99.90
43581;DHT22;29175;51.030;4.606;2022-10-16T04:05:32;14.90;99.90
43581;DHT22;29175;51.030;4.606;2022-10-16T04:07:58;15.00;99.90
43581;DHT22;29175;51.030;4.606;2022-10-16T04:10:23;15.00;99.90
43581;DHT22;29175;51.030;4.606;2022-10-16T04:12:49;14.80;99.90
43581;DHT22;29175;51.030;4.606;2022-10-16T04:15:15;14.90;99.90
43581;DHT22;29175;51.030;4.606;2022-10-16T04:17:40;14.80;99.90
43581;DHT22;29175;51.030;4.606;2022-10-16T04:20:06;14.70;99.90
43581;DHT22;29175;51.030;4.606;2022-10-16T04:22:32;14.70;99.90
43581;DHT22;29175;51.030;4.606;2022-10-16T04:24:58;14.70;99.90
43581;DHT22;29175;51.030;4.606;2022-10-16T04:27:23;14.70;99.90
43581;DHT22;29175;51.030;4.606;2022-10-16T04:29:49;14.60;99.90
43581;DHT22;29175;51.030;4.606;2022-10-16T04:32:15;14.60;99.90
43581;DHT22;29175;51.030;4.606;2022-10-16T04:34:41;14.70;99.90
43581;DHT22;29175;51.030;4.606;2022-10-16T04:37:07;14.80;99.90
43581;DHT22;29175;51.030;4.606;2022-10-16T04:39:32;14.70;99.90
43581;DHT22;29175;51.030;4.606;2022-10-16T04:41:58;14.80;99.90
43581;DHT22;29175;51.030;4.606;2022-10-16T04:44:25;14.70;99.90
43581;DHT22;29175;51.030;4.606;2022-10-16T04:46:51;14.70;99.90
43581;DHT22;29175;51.030;4.606;2022-10-16T04:49:16;14.70;99.90
43581;DHT22;29175;51.030;4.606;2022-10-16T04:51:42;14.70;99.90
43581;DHT22;29175;51.030;4.606;2022-10-16T04:54:09;14.60;99.90
43581;DHT22;29175;51.030;4.606;2022-10-16T04:56:34;14.60;99.90
43581;DHT22;29175;51.030;4.606;2022-10-16T04:59:05;14.50;99.90
43581;DHT22;29175;51.030;4.606;2022-10-16T05:01:31;14.50;99.90
43581;DHT22;29175;51.030;4.606;2022-10-16T05:03:57;14.40;99.90
43581;DHT22;29175;51.030;4.606;2022-10-16T05:06:23;14.40;99.90
43581;DHT22;29175;51.030;4.606;2022-10-16T05:08:49;14.40;99.90
43581;DHT22;29175;51.030;4.606;2022-10-16T05:11:15;14.50;99.90
43581;DHT22;29175;51.030;4.606;2022-10-16T05:13:40;14.40;99.90
43581;DHT22;29175;51.030;4.606;2022-10-16T05:16:06;14.40;99.90
43581;DHT22;29175;51.030;4.606;2022-10-16T05:18:32;14.30;99.90
43581;DHT22;29175;51.030;4.606;2022-10-16T05:20:57;14.30;99.90
43581;DHT22;29175;51.030;4.606;2022-10-16T05:23:24;14.30;99.90
43581;DHT22;29175;51.030;4.606;2022-10-16T05:25:57;14.30;99.90
43581;DHT22;29175;51.030;4.606;2022-10-16T05:28:25;14.30;99.90
43581;DHT22;29175;51.030;4.606;2022-10-16T05:30:51;14.40;99.90
43581;DHT22;29175;51.030;4.606;2022-10-16T05:33:20;14.40;99.90
43581;DHT22;29175;51.030;4.606;2022-10-16T05:35:46;14.40;99.90
43581;DHT22;29175;51.030;4.606;2022-10-16T05:38:12;14.30;99.90
43581;DHT22;29175;51.030;4.606;2022-10-16T05:40:37;14.20;99.90
43581;DHT22;29175;51.030;4.606;2022-10-16T05:43:03;14.30;99.90
43581;DHT22;29175;51.030;4.606;2022-10-16T05:45:29;14.20;99.90
43581;DHT22;29175;51.030;4.606;2022-10-16T05:47:54;14.10;99.90
43581;DHT22;29175;51.030;4.606;2022-10-16T05:50:20;14.10;99.90
43581;DHT22;29175;51.030;4.606;2022-10-16T05:52:46;14.10;99.90
43581;DHT22;29175;51.030;4.606;2022-10-16T05:55:11;14.10;99.90
43581;DHT22;29175;51.030;4.606;2022-10-16T05:57:37;13.90;99.90
43581;DHT22;29175;51.030;4.606;2022-10-16T06:00:04;13.80;99.90
43581;DHT22;29175;51.030;4.606;2022-10-16T06:02:30;13.90;99.90
43581;DHT22;29175;51.030;4.606;2022-10-16T06:04:55;14.00;99.90
43581;DHT22;29175;51.030;4.606;2022-10-16T06:07:22;14.00;99.90
43581;DHT22;29175;51.030;4.606;2022-10-16T06:09:49;13.90;99.90
43581;DHT22;29175;51.030;4.606;2022-10-16T06:12:15;14.00;99.90
43581;DHT22;29175;51.030;4.606;2022-10-16T06:14:41;13.90;99.90
43581;DHT22;29175;51.030;4.606;2022-10-16T06:17:07;13.90;99.90
43581;DHT22;29175;51.030;4.606;2022-10-16T06:19:32;13.90;99.90
43581;DHT22;29175;51.030;4.606;2022-10-16T06:21:58;14.00;99.90
43581;DHT22;29175;51.030;4.606;2022-10-16T06:24:25;14.00;99.90
43581;DHT22;29175;51.030;4.606;2022-10-16T06:26:50;14.00;99.90
43581;DHT22;29175;51.030;4.606;2022-10-16T06:29:16;14.10;99.90
43581;DHT22;29175;51.030;4.606;2022-10-16T06:31:42;14.20;99.90
43581;DHT22;29175;51.030;4.606;2022-10-16T06:34:09;14.30;99.90
43581;DHT22;29175;51.030;4.606;2022-10-16T06:36:37;14.30;99.90
43581;DHT22;29175;51.030;4.606;2022-10-16T06:39:04;14.40;99.90
43581;DHT22;29175;51.030;4.606;2022-10-16T06:41:30;14.50;99.90
43581;DHT22;29175;51.030;4.606;2022-10-16T06:43:57;14.50;99.90
43581;DHT22;29175;51.030;4.606;2022-10-16T06:46:25;14.70;99.90
43581;DHT22;29175;51.030;4.606;2022-10-16T06:48:53;14.70;99.90
43581;DHT22;29175;51.030;4.606;2022-10-16T06:51:20;14.70;99.90
43581;DHT22;29175;51.030;4.606;2022-10-16T06:53:49;14.70;99.90
43581;DHT22;29175;51.030;4.606;2022-10-16T06:56:26;14.60;99.90
43581;DHT22;29175;51.030;4.606;2022-10-16T06:58:53;14.90;99.90
43581;DHT22;29175;51.030;4.606;2022-10-16T07:01:21;14.80;99.90
43581;DHT22;29175;51.030;4.606;2022-10-16T07:03:47;14.90;99.90
43581;DHT22;29175;51.030;4.606;2022-10-16T07:06:15;15.00;99.90
43581;DHT22;29175;51.030;4.606;2022-10-16T07:08:43;15.30;99.90
43581;DHT22;29175;51.030;4.606;2022-10-16T07:11:12;15.30;99.90
43581;DHT22;29175;51.030;4.606;2022-10-16T07:13:39;15.20;99.90
43581;DHT22;29175;51.030;4.606;2022-10-16T07:16:11;15.30;99.90
43581;DHT22;29175;51.030;4.606;2022-10-16T07:18:38;15.50;99.90
43581;DHT22;29175;51.030;4.606;2022-10-16T07:21:08;15.40;99.90
43581;DHT22;29175;51.030;4.606;2022-10-16T07:23:35;15.70;99.90
43581;DHT22;29175;51.030;4.606;2022-10-16T07:26:01;15.60;99.90
43581;DHT22;29175;51.030;4.606;2022-10-16T07:28:29;15.50;99.90
43581;DHT22;29175;51.030;4.606;2022-10-16T07:31:01;15.60;99.90
43581;DHT22;29175;51.030;4.606;2022-10-16T07:33:29;15.60;99.90
43581;DHT22;29175;51.030;4.606;2022-10-16T07:35:55;15.70;99.90
43581;DHT22;29175;51.030;4.606;2022-10-16T07:38:21;15.60;99.90
43581;DHT22;29175;51.030;4.606;2022-10-16T07:40:55;15.70;99.90
43581;DHT22;29175;51.030;4.606;2022-10-16T07:43:21;15.60;99.90
43581;DHT22;29175;51.030;4.606;2022-10-16T07:45:48;15.50;99.90
43581;DHT22;29175;51.030;4.606;2022-10-16T07:48:15;15.50;99.90
43581;DHT22;29175;51.030;4.606;2022-10-16T07:50:41;15.50;99.90
43581;DHT22;29175;51.030;4.606;2022-10-16T07:53:07;15.40;99.90
43581;DHT22;29175;51.030;4.606;2022-10-16T07:55:33;15.40;99.90
43581;DHT22;29175;51.030;4.606;2022-10-16T07:57:58;15.70;99.90
43581;DHT22;29175;51.030;4.606;2022-10-16T08:00:25;15.60;99.90
43581;DHT22;29175;51.030;4.606;2022-10-16T08:02:51;15.60;99.90
43581;DHT22;29175;51.030;4.606;2022-10-16T08:05:16;15.70;99.90
43581;DHT22;29175;51.030;4.606;2022-10-16T08:07:42;15.90;99.90
43581;DHT22;29175;51.030;4.606;2022-10-16T08:10:19;16.10;99.90
43581;DHT22;29175;51.030;4.606;2022-10-16T08:12:45;16.30;99.90
43581;DHT22;29175;51.030;4.606;2022-10-16T08:15:10;16.40;99.90
43581;DHT22;29175;51.030;4.606;2022-10-16T08:17:36;16.50;99.90
43581;DHT22;29175;51.030;4.606;2022-10-16T08:20:02;16.80;99.90
43581;DHT22;29175;51.030;4.606;2022-10-16T08:22:28;17.00;99.90
43581;DHT22;29175;51.030;4.606;2022-10-16T08:24:54;17.00;99.90
43581;DHT22;29175;51.030;4.606;2022-10-16T08:27:19;17.20;99.90
43581;DHT22;29175;51.030;4.606;2022-10-16T08:29:45;17.20;99.90
43581;DHT22;29175;51.030;4.606;2022-10-16T08:32:11;17.10;99.90
43581;DHT22;29175;51.030;4.606;2022-10-16T08:34:36;17.30;99.90
43581;DHT22;29175;51.030;4.606;2022-10-16T08:37:02;17.10;99.90
43581;DHT22;29175;51.030;4.606;2022-10-16T08:39:28;17.40;99.90
43581;DHT22;29175;51.030;4.606;2022-10-16T08:45:18;17.30;99.90
43581;DHT22;29175;51.030;4.606;2022-10-16T08:47:55;17.20;99.90
43581;DHT22;29175;51.030;4.606;2022-10-16T08:50:27;17.20;99.90
43581;DHT22;29175;51.030;4.606;2022-10-16T08:52:55;17.20;99.90
43581;DHT22;29175;51.030;4.606;2022-10-16T08:55:51;17.40;99.90
43581;DHT22;29175;51.030;4.606;2022-10-16T08:58:22;17.40;99.90
43581;DHT22;29175;51.030;4.606;2022-10-16T09:00:53;17.40;99.90
43581;DHT22;29175;51.030;4.606;2022-10-16T09:06:17;17.30;99.90
43581;DHT22;29175;51.030;4.606;2022-10-16T09:17:00;17.10;99.90
43581;DHT22;29175;51.030;4.606;2022-10-16T09:19:40;17.40;99.90
43581;DHT22;29175;51.030;4.606;2022-10-16T09:22:17;17.40;99.90
43581;DHT22;29175;51.030;4.606;2022-10-16T09:24:43;17.40;99.90
43581;DHT22;29175;51.030;4.606;2022-10-16T09:27:14;17.40;99.90
43581;DHT22;29175;51.030;4.606;2022-10-16T09:29:40;17.60;99.90
43581;DHT22;29175;51.030;4.606;2022-10-16T09:32:17;17.90;99.90
43581;DHT22;29175;51.030;4.606;2022-10-16T09:34:51;18.30;99.90
43581;DHT22;29175;51.030;4.606;2022-10-16T09:37:20;17.90;99.90
43581;DHT22;29175;51.030;4.606;2022-10-16T09:39:48;17.90;99.90
43581;DHT22;29175;51.030;4.606;2022-10-16T09:42:20;18.00;99.90
43581;DHT22;29175;51.030;4.606;2022-10-16T09:44:49;18.40;99.90
43581;DHT22;29175;51.030;4.606;2022-10-16T09:47:25;18.60;99.90
43581;DHT22;29175;51.030;4.606;2022-10-16T09:49:53;18.50;99.90
43581;DHT22;29175;51.030;4.606;2022-10-16T09:52:19;18.70;99.90
43581;DHT22;29175;51.030;4.606;2022-10-16T09:54:59;18.80;99.90
43581;DHT22;29175;51.030;4.606;2022-10-16T09:57:27;19.00;99.90
43581;DHT22;29175;51.030;4.606;2022-10-16T09:59:54;18.90;99.90
43581;DHT22;29175;51.030;4.606;2022-10-16T10:02:30;19.20;99.90
43581;DHT22;29175;51.030;4.606;2022-10-16T10:04:56;19.40;99.90
43581;DHT22;29175;51.030;4.606;2022-10-16T10:07:32;19.80;99.90
43581;DHT22;29175;51.030;4.606;2022-10-16T10:10:00;20.00;99.90
43581;DHT22;29175;51.030;4.606;2022-10-16T10:12:31;19.70;99.90
43581;DHT22;29175;51.030;4.606;2022-10-16T10:15:13;19.50;99.90
43581;DHT22;29175;51.030;4.606;2022-10-16T10:17:53;19.10;99.90
43581;DHT22;29175;51.030;4.606;2022-10-16T10:20:24;18.80;99.90
43581;DHT22;29175;51.030;4.606;2022-10-16T10:22:50;18.80;99.90
43581;DHT22;29175;51.030;4.606;2022-10-16T10:33:47;19.60;99.90
43581;DHT22;29175;51.030;4.606;2022-10-16T10:46:53;19.10;99.90
43581;DHT22;29175;51.030;4.606;2022-10-16T11:01:16;19.80;99.90
43581;DHT22;29175;51.030;4.606;2022-10-16T11:06:57;19.80;99.90
43581;DHT22;29175;51.030;4.606;2022-10-16T11:09:39;20.00;99.90
43581;DHT22;29175;51.030;4.606;2022-10-16T11:12:30;20.30;99.90
43581;DHT22;29175;51.030;4.606;2022-10-16T11:15:20;20.90;99.90
43581;DHT22;29175;51.030;4.606;2022-10-16T11:18:02;20.70;99.90
43581;DHT22;29175;51.030;4.606;2022-10-16T11:20:37;21.20;99.90
43581;DHT22;29175;51.030;4.606;2022-10-16T11:23:14;21.20;99.90
43581;DHT22;29175;51.030;4.606;2022-10-16T11:25:43;21.40;99.90
43581;DHT22;29175;51.030;4.606;2022-10-16T11:28:43;21.50;99.90
43581;DHT22;29175;51.030;4.606;2022-10-16T11:34:00;21.40;99.90
43581;DHT22;29175;51.030;4.606;2022-10-16T11:36:38;21.30;99.90
43581;DHT22;29175;51.030;4.606;2022-10-16T11:39:17;21.10;99.90
43581;DHT22;29175;51.030;4.606;2022-10-16T11:42:08;21.20;99.90
43581;DHT22;29175;51.030;4.606;2022-10-16T11:49:55;21.90;99.90
43581;DHT22;29175;51.030;4.606;2022-10-16T11:52:31;22.40;99.90
43581;DHT22;29175;51.030;4.606;2022-10-16T11:57:38;22.40;99.90
43581;DHT22;29175;51.030;4.606;2022-10-16T12:00:28;22.40;99.90
43581;DHT22;29175;51.030;4.606;2022-10-16T12:06:14;21.60;99.90
43581;DHT22;29175;51.030;4.606;2022-10-16T12:08:45;21.60;99.90
43581;DHT22;29175;51.030;4.606;2022-10-16T12:11:32;22.00;99.90
43581;DHT22;29175;51.030;4.606;2022-10-16T12:16:38;21.50;99.90
43581;DHT22;29175;51.030;4.606;2022-10-16T12:19:15;21.10;99.90
43581;DHT22;29175;51.030;4.606;2022-10-16T12:21:43;21.10;99.90
43581;DHT22;29175;51.030;4.606;2022-10-16T12:24:22;21.20;99.90
43581;DHT22;29175;51.030;4.606;2022-10-16T12:26:52;21.30;99.90
43581;DHT22;29175;51.030;4.606;2022-10-16T12:29:33;21.40;99.90
43581;DHT22;29175;51.030;4.606;2022-10-16T12:32:00;21.50;99.90
43581;DHT22;29175;51.030;4.606;2022-10-16T12:39:55;21.70;99.90
43581;DHT22;29175;51.030;4.606;2022-10-16T12:44:55;21.90;99.90
43581;DHT22;29175;51.030;4.606;2022-10-16T12:49:53;21.80;99.90
43581;DHT22;29175;51.030;4.606;2022-10-16T12:52:37;21.80;99.90
43581;DHT22;29175;51.030;4.606;2022-10-16T12:55:09;21.90;99.90
43581;DHT22;29175;51.030;4.606;2022-10-16T13:00:25;21.90;99.90
43581;DHT22;29175;51.030;4.606;2022-10-16T13:15:07;21.30;99.90
43581;DHT22;29175;51.030;4.606;2022-10-16T13:17:42;21.20;99.90
43581;DHT22;29175;51.030;4.606;2022-10-16T13:26:16;21.00;99.90
43581;DHT22;29175;51.030;4.606;2022-10-16T13:28:45;21.00;99.90
43581;DHT22;29175;51.030;4.606;2022-10-16T13:31:19;21.00;99.90
43581;DHT22;29175;51.030;4.606;2022-10-16T13:33:54;21.00;99.90
43581;DHT22;29175;51.030;4.606;2022-10-16T13:36:21;20.90;99.90
43581;DHT22;29175;51.030;4.606;2022-10-16T13:38:47;20.80;99.90
43581;DHT22;29175;51.030;4.606;2022-10-16T13:41:17;20.90;99.90
43581;DHT22;29175;51.030;4.606;2022-10-16T13:43:49;21.00;99.90
43581;DHT22;29175;51.030;4.606;2022-10-16T13:46:19;21.10;99.90
43581;DHT22;29175;51.030;4.606;2022-10-16T13:48:55;21.00;99.90
43581;DHT22;29175;51.030;4.606;2022-10-16T13:51:21;21.10;99.90
43581;DHT22;29175;51.030;4.606;2022-10-16T13:53:47;21.50;99.90
43581;DHT22;29175;51.030;4.606;2022-10-16T13:56:15;21.30;99.90
43581;DHT22;29175;51.030;4.606;2022-10-16T13:58:42;21.20;99.90
43581;DHT22;29175;51.030;4.606;2022-10-16T14:01:23;21.20;99.90
43581;DHT22;29175;51.030;4.606;2022-10-16T14:03:51;21.20;99.90
43581;DHT22;29175;51.030;4.606;2022-10-16T14:06:20;21.00;99.90
43581;DHT22;29175;51.030;4.606;2022-10-16T14:09:07;21.10;99.90
43581;DHT22;29175;51.030;4.606;2022-10-16T14:11:44;21.30;99.90
43581;DHT22;29175;51.030;4.606;2022-10-16T14:14:12;21.20;99.90
43581;DHT22;29175;51.030;4.606;2022-10-16T14:16:40;21.20;99.90
43581;DHT22;29175;51.030;4.606;2022-10-16T14:19:29;21.20;99.90
43581;DHT22;29175;51.030;4.606;2022-10-16T14:21:56;21.20;99.90
43581;DHT22;29175;51.030;4.606;2022-10-16T14:24:32;21.10;99.90
43581;DHT22;29175;51.030;4.606;2022-10-16T14:27:02;21.10;99.90
43581;DHT22;29175;51.030;4.606;2022-10-16T14:29:29;21.10;99.90
43581;DHT22;29175;51.030;4.606;2022-10-16T14:31:58;21.20;99.90
43581;DHT22;29175;51.030;4.606;2022-10-16T14:34:26;21.10;99.90
43581;DHT22;29175;51.030;4.606;2022-10-16T14:36:54;21.10;99.90
43581;DHT22;29175;51.030;4.606;2022-10-16T14:39:22;21.10;99.90
43581;DHT22;29175;51.030;4.606;2022-10-16T14:41:50;21.20;99.90
43581;DHT22;29175;51.030;4.606;2022-10-16T14:44:26;21.20;99.90
43581;DHT22;29175;51.030;4.606;2022-10-16T14:46:53;21.20;99.90
43581;DHT22;29175;51.030;4.606;2022-10-16T14:49:20;21.10;99.90
43581;DHT22;29175;51.030;4.606;2022-10-16T14:51:47;20.90;99.90
43581;DHT22;29175;51.030;4.606;2022-10-16T14:54:15;20.70;99.90
43581;DHT22;29175;51.030;4.606;2022-10-16T14:56:56;20.50;99.90
43581;DHT22;29175;51.030;4.606;2022-10-16T14:59:36;20.50;99.90
43581;DHT22;29175;51.030;4.606;2022-10-16T15:02:20;20.50;99.90
43581;DHT22;29175;51.030;4.606;2022-10-16T15:04:48;20.30;99.90
43581;DHT22;29175;51.030;4.606;2022-10-16T15:07:14;20.30;99.90
43581;DHT22;29175;51.030;4.606;2022-10-16T15:09:40;20.30;99.90
43581;DHT22;29175;51.030;4.606;2022-10-16T15:12:06;20.40;99.90
43581;DHT22;29175;51.030;4.606;2022-10-16T15:14:31;20.50;99.90
43581;DHT22;29175;51.030;4.606;2022-10-16T15:16:57;20.50;99.90
43581;DHT22;29175;51.030;4.606;2022-10-16T15:19:23;20.50;99.90
43581;DHT22;29175;51.030;4.606;2022-10-16T15:21:48;20.50;99.90
43581;DHT22;29175;51.030;4.606;2022-10-16T15:24:15;20.50;99.90
43581;DHT22;29175;51.030;4.606;2022-10-16T15:26:40;20.40;99.90
43581;DHT22;29175;51.030;4.606;2022-10-16T15:29:07;20.30;99.90
43581;DHT22;29175;51.030;4.606;2022-10-16T15:31:33;20.30;99.90
43581;DHT22;29175;51.030;4.606;2022-10-16T15:33:59;20.20;99.90
43581;DHT22;29175;51.030;4.606;2022-10-16T15:36:33;20.20;99.90
43581;DHT22;29175;51.030;4.606;2022-10-16T15:39:05;20.10;99.90
43581;DHT22;29175;51.030;4.606;2022-10-16T15:41:31;20.10;99.90
43581;DHT22;29175;51.030;4.606;2022-10-16T15:43:57;20.00;99.90
43581;DHT22;29175;51.030;4.606;2022-10-16T15:46:23;20.00;99.90
43581;DHT22;29175;51.030;4.606;2022-10-16T15:48:50;20.00;99.90
43581;DHT22;29175;51.030;4.606;2022-10-16T15:51:17;19.90;99.90
43581;DHT22;29175;51.030;4.606;2022-10-16T15:53:43;19.90;99.90
43581;DHT22;29175;51.030;4.606;2022-10-16T15:56:12;19.80;99.90
43581;DHT22;29175;51.030;4.606;2022-10-16T15:58:39;19.80;99.90
43581;DHT22;29175;51.030;4.606;2022-10-16T16:01:05;19.70;99.90
43581;DHT22;29175;51.030;4.606;2022-10-16T16:03:32;19.60;99.90
43581;DHT22;29175;51.030;4.606;2022-10-16T16:05:58;19.40;99.90
43581;DHT22;29175;51.030;4.606;2022-10-16T16:08:24;19.30;99.90
43581;DHT22;29175;51.030;4.606;2022-10-16T16:11:13;19.30;99.90
43581;DHT22;29175;51.030;4.606;2022-10-16T16:13:39;19.30;99.90
43581;DHT22;29175;51.030;4.606;2022-10-16T16:16:12;19.20;99.90
43581;DHT22;29175;51.030;4.606;2022-10-16T16:18:38;19.20;99.90
43581;DHT22;29175;51.030;4.606;2022-10-16T16:21:04;19.20;99.90
43581;DHT22;29175;51.030;4.606;2022-10-16T16:23:31;19.10;99.90
43581;DHT22;29175;51.030;4.606;2022-10-16T16:26:07;19.10;99.90
43581;DHT22;29175;51.030;4.606;2022-10-16T16:28:33;19.10;99.90
43581;DHT22;29175;51.030;4.606;2022-10-16T16:30:59;19.00;99.90
43581;DHT22;29175;51.030;4.606;2022-10-16T16:33:25;19.00;99.90
43581;DHT22;29175;51.030;4.606;2022-10-16T16:35:50;18.90;99.90
43581;DHT22;29175;51.030;4.606;2022-10-16T16:38:16;19.00;99.90
43581;DHT22;29175;51.030;4.606;2022-10-16T16:40:41;18.90;99.90
43581;DHT22;29175;51.030;4.606;2022-10-16T16:43:07;18.90;99.90
43581;DHT22;29175;51.030;4.606;2022-10-16T16:45:37;18.90;99.90
43581;DHT22;29175;51.030;4.606;2022-10-16T16:48:03;18.80;99.90
43581;DHT22;29175;51.030;4.606;2022-10-16T16:50:29;18.70;99.90
43581;DHT22;29175;51.030;4.606;2022-10-16T16:52:56;18.70;99.90
43581;DHT22;29175;51.030;4.606;2022-10-16T16:55:21;18.70;99.90
43581;DHT22;29175;51.030;4.606;2022-10-16T16:57:51;18.70;99.90
43581;DHT22;29175;51.030;4.606;2022-10-16T17:00:20;18.70;99.90
43581;DHT22;29175;51.030;4.606;2022-10-16T17:02:49;18.70;99.90
43581;DHT22;29175;51.030;4.606;2022-10-16T17:05:15;18.60;99.90
43581;DHT22;29175;51.030;4.606;2022-10-16T17:07:41;18.60;99.90
43581;DHT22;29175;51.030;4.606;2022-10-16T17:10:07;18.50;99.90
43581;DHT22;29175;51.030;4.606;2022-10-16T17:12:34;18.50;99.90
43581;DHT22;29175;51.030;4.606;2022-10-16T17:15:00;18.40;99.90
43581;DHT22;29175;51.030;4.606;2022-10-16T17:17:26;18.40;99.90
43581;DHT22;29175;51.030;4.606;2022-10-16T17:19:52;18.40;99.90
43581;DHT22;29175;51.030;4.606;2022-10-16T17:22:18;18.40;99.90
43581;DHT22;29175;51.030;4.606;2022-10-16T17:24:44;18.30;99.90
43581;DHT22;29175;51.030;4.606;2022-10-16T17:27:15;18.50;99.90
43581;DHT22;29175;51.030;4.606;2022-10-16T17:29:41;18.50;99.90